sensor_id;sensor_type;location;lat;lon;timestamp;P1;durP1;ratioP1;P2;durP2;ratioP2
19940;SDS011;10132;50.864;5.176;2022-07-29T00:02:00;4.93;;;2.90;;
19940;SDS011;10132;50.864;5.176;2022-07-29T00:04:02;6.85;;;3.00;;
19940;SDS011;10132;50.864;5.176;2022-07-29T00:06:05;5.53;;;2.60;;
19940;SDS011;10132;50.864;5.176;2022-07-29T00:08:07;8.18;;;3.38;;
19940;SDS011;10132;50.864;5.176;2022-07-29T00:10:11;6.93;;;3.30;;
19940;SDS011;10132;50.864;5.176;2022-07-29T00:12:13;5.20;;;3.10;;
19940;SDS011;10132;50.864;5.176;2022-07-29T00:14:15;6.47;;;3.45;;
19940;SDS011;10132;50.864;5.176;2022-07-29T00:16:16;7.22;;;3.45;;
19940;SDS011;10132;50.864;5.176;2022-07-29T00:18:18;8.45;;;3.10;;
19940;SDS011;10132;50.864;5.176;2022-07-29T00:20:20;7.38;;;3.22;;
19940;SDS011;10132;50.864;5.176;2022-07-29T00:22:22;7.13;;;3.00;;
19940;SDS011;10132;50.864;5.176;2022-07-29T00:24:24;9.23;;;3.33;;
19940;SDS011;10132;50.864;5.176;2022-07-29T00:26:28;5.90;;;2.80;;
19940;SDS011;10132;50.864;5.176;2022-07-29T00:28:31;5.22;;;2.95;;
19940;SDS011;10132;50.864;5.176;2022-07-29T00:30:33;6.03;;;3.15;;
19940;SDS011;10132;50.864;5.176;2022-07-29T00:32:35;6.43;;;2.80;;
19940;SDS011;10132;50.864;5.176;2022-07-29T00:34:37;5.30;;;3.13;;
19940;SDS011;10132;50.864;5.176;2022-07-29T00:36:57;6.18;;;3.10;;
19940;SDS011;10132;50.864;5.176;2022-07-29T00:38:59;7.67;;;3.43;;
19940;SDS011;10132;50.864;5.176;2022-07-29T00:41:01;5.63;;;3.22;;
19940;SDS011;10132;50.864;5.176;2022-07-29T00:43:04;7.50;;;3.40;;
19940;SDS011;10132;50.864;5.176;2022-07-29T00:45:07;4.63;;;2.90;;
19940;SDS011;10132;50.864;5.176;2022-07-29T00:47:09;5.33;;;3.37;;
19940;SDS011;10132;50.864;5.176;2022-07-29T00:49:12;6.65;;;3.25;;
19940;SDS011;10132;50.864;5.176;2022-07-29T00:51:14;7.55;;;3.03;;
19940;SDS011;10132;50.864;5.176;2022-07-29T00:53:16;7.43;;;3.00;;
19940;SDS011;10132;50.864;5.176;2022-07-29T00:55:18;4.63;;;2.80;;
19940;SDS011;10132;50.864;5.176;2022-07-29T00:57:20;4.57;;;2.92;;
19940;SDS011;10132;50.864;5.176;2022-07-29T00:59:24;4.47;;;3.30;;
19940;SDS011;10132;50.864;5.176;2022-07-29T01:01:27;5.18;;;2.70;;
19940;SDS011;10132;50.864;5.176;2022-07-29T01:03:29;7.45;;;3.28;;
19940;SDS011;10132;50.864;5.176;2022-07-29T01:05:31;8.65;;;3.47;;
19940;SDS011;10132;50.864;5.176;2022-07-29T01:07:34;4.50;;;3.47;;
19940;SDS011;10132;50.864;5.176;2022-07-29T01:09:37;6.70;;;3.17;;
19940;SDS011;10132;50.864;5.176;2022-07-29T01:11:39;6.75;;;3.60;;
19940;SDS011;10132;50.864;5.176;2022-07-29T01:13:42;7.30;;;3.33;;
19940;SDS011;10132;50.864;5.176;2022-07-29T01:15:47;7.80;;;3.60;;
19940;SDS011;10132;50.864;5.176;2022-07-29T01:17:57;5.30;;;3.33;;
19940;SDS011;10132;50.864;5.176;2022-07-29T01:20:03;5.50;;;3.67;;
19940;SDS011;10132;50.864;5.176;2022-07-29T01:22:15;5.80;;;3.10;;
19940;SDS011;10132;50.864;5.176;2022-07-29T01:24:33;8.33;;;3.53;;
19940;SDS011;10132;50.864;5.176;2022-07-29T01:26:45;6.43;;;3.28;;
19940;SDS011;10132;50.864;5.176;2022-07-29T01:28:59;7.57;;;3.80;;
19940;SDS011;10132;50.864;5.176;2022-07-29T01:31:07;6.43;;;3.47;;
19940;SDS011;10132;50.864;5.176;2022-07-29T01:33:13;8.20;;;3.77;;
19940;SDS011;10132;50.864;5.176;2022-07-29T01:35:33;9.23;;;3.90;;
19940;SDS011;10132;50.864;5.176;2022-07-29T01:37:42;6.07;;;3.70;;
19940;SDS011;10132;50.864;5.176;2022-07-29T01:39:46;4.73;;;3.40;;
19940;SDS011;10132;50.864;5.176;2022-07-29T01:41:53;5.83;;;3.57;;
19940;SDS011;10132;50.864;5.176;2022-07-29T01:44:01;5.90;;;3.50;;
19940;SDS011;10132;50.864;5.176;2022-07-29T01:46:11;6.80;;;3.80;;
19940;SDS011;10132;50.864;5.176;2022-07-29T01:48:19;6.70;;;3.77;;
19940;SDS011;10132;50.864;5.176;2022-07-29T01:50:26;8.97;;;3.53;;
19940;SDS011;10132;50.864;5.176;2022-07-29T01:52:33;6.10;;;3.53;;
19940;SDS011;10132;50.864;5.176;2022-07-29T01:54:42;10.87;;;3.77;;
19940;SDS011;10132;50.864;5.176;2022-07-29T01:56:49;8.57;;;3.60;;
19940;SDS011;10132;50.864;5.176;2022-07-29T01:58:52;6.27;;;3.80;;
19940;SDS011;10132;50.864;5.176;2022-07-29T02:00:58;6.50;;;3.90;;
19940;SDS011;10132;50.864;5.176;2022-07-29T02:03:02;5.37;;;3.73;;
19940;SDS011;10132;50.864;5.176;2022-07-29T02:05:09;5.90;;;3.60;;
19940;SDS011;10132;50.864;5.176;2022-07-29T02:07:15;5.77;;;4.00;;
19940;SDS011;10132;50.864;5.176;2022-07-29T02:09:20;6.00;;;3.60;;
19940;SDS011;10132;50.864;5.176;2022-07-29T02:11:25;6.23;;;3.53;;
19940;SDS011;10132;50.864;5.176;2022-07-29T02:13:28;4.90;;;3.60;;
19940;SDS011;10132;50.864;5.176;2022-07-29T02:15:31;8.40;;;3.60;;
19940;SDS011;10132;50.864;5.176;2022-07-29T02:17:39;6.97;;;3.60;;
19940;SDS011;10132;50.864;5.176;2022-07-29T02:19:43;5.77;;;3.50;;
19940;SDS011;10132;50.864;5.176;2022-07-29T02:21:46;5.87;;;4.07;;
19940;SDS011;10132;50.864;5.176;2022-07-29T02:23:49;4.85;;;3.28;;
19940;SDS011;10132;50.864;5.176;2022-07-29T02:25:53;4.47;;;3.60;;
19940;SDS011;10132;50.864;5.176;2022-07-29T02:27:57;6.73;;;3.50;;
19940;SDS011;10132;50.864;5.176;2022-07-29T02:30:02;5.90;;;3.60;;
19940;SDS011;10132;50.864;5.176;2022-07-29T02:32:05;7.87;;;3.67;;
19940;SDS011;10132;50.864;5.176;2022-07-29T02:34:12;7.03;;;3.63;;
19940;SDS011;10132;50.864;5.176;2022-07-29T02:36:16;6.53;;;3.20;;
19940;SDS011;10132;50.864;5.176;2022-07-29T02:38:20;8.23;;;3.50;;
19940;SDS011;10132;50.864;5.176;2022-07-29T02:40:40;8.03;;;3.83;;
19940;SDS011;10132;50.864;5.176;2022-07-29T02:42:44;5.50;;;4.00;;
19940;SDS011;10132;50.864;5.176;2022-07-29T02:44:48;5.93;;;3.90;;
19940;SDS011;10132;50.864;5.176;2022-07-29T02:46:52;4.77;;;3.70;;
19940;SDS011;10132;50.864;5.176;2022-07-29T02:48:59;4.00;;;3.53;;
19940;SDS011;10132;50.864;5.176;2022-07-29T02:51:12;7.40;;;3.80;;
19940;SDS011;10132;50.864;5.176;2022-07-29T02:53:20;9.32;;;3.60;;
19940;SDS011;10132;50.864;5.176;2022-07-29T02:55:25;8.20;;;3.73;;
19940;SDS011;10132;50.864;5.176;2022-07-29T02:57:32;6.70;;;3.70;;
19940;SDS011;10132;50.864;5.176;2022-07-29T02:59:37;6.33;;;3.90;;
19940;SDS011;10132;50.864;5.176;2022-07-29T03:01:43;4.53;;;3.60;;
19940;SDS011;10132;50.864;5.176;2022-07-29T03:03:46;5.97;;;3.70;;
19940;SDS011;10132;50.864;5.176;2022-07-29T03:05:51;4.80;;;3.67;;
19940;SDS011;10132;50.864;5.176;2022-07-29T03:07:57;6.50;;;3.67;;
19940;SDS011;10132;50.864;5.176;2022-07-29T03:10:02;8.43;;;4.10;;
19940;SDS011;10132;50.864;5.176;2022-07-29T03:12:05;4.73;;;3.60;;
19940;SDS011;10132;50.864;5.176;2022-07-29T03:14:07;5.53;;;3.77;;
19940;SDS011;10132;50.864;5.176;2022-07-29T03:16:09;8.70;;;3.70;;
19940;SDS011;10132;50.864;5.176;2022-07-29T03:18:12;7.90;;;4.47;;
19940;SDS011;10132;50.864;5.176;2022-07-29T03:20:15;5.40;;;3.87;;
19940;SDS011;10132;50.864;5.176;2022-07-29T03:22:18;5.47;;;3.60;;
19940;SDS011;10132;50.864;5.176;2022-07-29T03:24:31;7.27;;;4.00;;
19940;SDS011;10132;50.864;5.176;2022-07-29T03:26:34;7.70;;;3.77;;
19940;SDS011;10132;50.864;5.176;2022-07-29T03:28:36;7.80;;;3.80;;
19940;SDS011;10132;50.864;5.176;2022-07-29T03:30:38;4.87;;;3.60;;
19940;SDS011;10132;50.864;5.176;2022-07-29T03:32:40;5.03;;;3.83;;
19940;SDS011;10132;50.864;5.176;2022-07-29T03:34:42;4.07;;;3.60;;
19940;SDS011;10132;50.864;5.176;2022-07-29T03:36:46;7.60;;;4.60;;
19940;SDS011;10132;50.864;5.176;2022-07-29T03:38:48;4.93;;;3.67;;
19940;SDS011;10132;50.864;5.176;2022-07-29T03:40:53;6.93;;;4.03;;
19940;SDS011;10132;50.864;5.176;2022-07-29T03:43:00;6.90;;;4.07;;
19940;SDS011;10132;50.864;5.176;2022-07-29T03:45:05;6.47;;;4.10;;
19940;SDS011;10132;50.864;5.176;2022-07-29T03:47:10;6.43;;;4.20;;
19940;SDS011;10132;50.864;5.176;2022-07-29T03:49:14;6.93;;;4.03;;
19940;SDS011;10132;50.864;5.176;2022-07-29T03:51:17;7.17;;;4.20;;
19940;SDS011;10132;50.864;5.176;2022-07-29T03:53:19;4.63;;;4.10;;
19940;SDS011;10132;50.864;5.176;2022-07-29T03:55:21;5.67;;;4.43;;
19940;SDS011;10132;50.864;5.176;2022-07-29T03:57:25;6.67;;;4.70;;
19940;SDS011;10132;50.864;5.176;2022-07-29T03:59:29;9.00;;;4.80;;
19940;SDS011;10132;50.864;5.176;2022-07-29T04:01:33;6.63;;;4.27;;
19940;SDS011;10132;50.864;5.176;2022-07-29T04:03:36;6.50;;;4.70;;
19940;SDS011;10132;50.864;5.176;2022-07-29T04:05:38;7.97;;;4.53;;
19940;SDS011;10132;50.864;5.176;2022-07-29T04:07:40;5.53;;;4.30;;
19940;SDS011;10132;50.864;5.176;2022-07-29T04:09:45;7.40;;;4.47;;
19940;SDS011;10132;50.864;5.176;2022-07-29T04:11:46;5.67;;;4.33;;
19940;SDS011;10132;50.864;5.176;2022-07-29T04:13:50;7.57;;;4.50;;
19940;SDS011;10132;50.864;5.176;2022-07-29T04:15:52;8.77;;;4.27;;
19940;SDS011;10132;50.864;5.176;2022-07-29T04:17:54;6.33;;;4.20;;
19940;SDS011;10132;50.864;5.176;2022-07-29T04:19:56;7.37;;;4.10;;
19940;SDS011;10132;50.864;5.176;2022-07-29T04:21:58;7.47;;;3.93;;
19940;SDS011;10132;50.864;5.176;2022-07-29T04:24:00;6.30;;;4.47;;
19940;SDS011;10132;50.864;5.176;2022-07-29T04:26:02;7.03;;;4.00;;
19940;SDS011;10132;50.864;5.176;2022-07-29T04:28:04;8.10;;;4.67;;
19940;SDS011;10132;50.864;5.176;2022-07-29T04:30:08;9.27;;;4.93;;
19940;SDS011;10132;50.864;5.176;2022-07-29T04:32:10;5.10;;;4.47;;
19940;SDS011;10132;50.864;5.176;2022-07-29T04:34:12;6.60;;;3.90;;
19940;SDS011;10132;50.864;5.176;2022-07-29T04:36:14;7.17;;;4.53;;
19940;SDS011;10132;50.864;5.176;2022-07-29T04:38:16;6.57;;;4.07;;
19940;SDS011;10132;50.864;5.176;2022-07-29T04:40:18;6.77;;;3.83;;
19940;SDS011;10132;50.864;5.176;2022-07-29T04:42:20;6.30;;;4.33;;
19940;SDS011;10132;50.864;5.176;2022-07-29T04:44:22;9.53;;;3.93;;
19940;SDS011;10132;50.864;5.176;2022-07-29T04:46:26;7.37;;;4.20;;
19940;SDS011;10132;50.864;5.176;2022-07-29T04:48:27;9.20;;;4.83;;
19940;SDS011;10132;50.864;5.176;2022-07-29T04:50:29;6.77;;;3.87;;
19940;SDS011;10132;50.864;5.176;2022-07-29T04:52:31;5.73;;;4.33;;
19940;SDS011;10132;50.864;5.176;2022-07-29T04:54:34;5.07;;;3.87;;
19940;SDS011;10132;50.864;5.176;2022-07-29T04:56:36;5.10;;;3.87;;
19940;SDS011;10132;50.864;5.176;2022-07-29T04:58:38;7.27;;;4.30;;
19940;SDS011;10132;50.864;5.176;2022-07-29T05:00:40;9.23;;;4.80;;
19940;SDS011;10132;50.864;5.176;2022-07-29T05:02:43;9.60;;;4.50;;
19940;SDS011;10132;50.864;5.176;2022-07-29T05:04:45;6.33;;;4.80;;
19940;SDS011;10132;50.864;5.176;2022-07-29T05:06:47;6.10;;;4.57;;
19940;SDS011;10132;50.864;5.176;2022-07-29T05:08:49;6.03;;;4.37;;
19940;SDS011;10132;50.864;5.176;2022-07-29T05:10:51;8.97;;;4.20;;
19940;SDS011;10132;50.864;5.176;2022-07-29T05:12:53;5.87;;;4.10;;
19940;SDS011;10132;50.864;5.176;2022-07-29T05:14:55;5.97;;;4.47;;
19940;SDS011;10132;50.864;5.176;2022-07-29T05:16:57;8.37;;;5.07;;
19940;SDS011;10132;50.864;5.176;2022-07-29T05:19:01;6.97;;;4.50;;
19940;SDS011;10132;50.864;5.176;2022-07-29T05:21:03;5.73;;;4.50;;
19940;SDS011;10132;50.864;5.176;2022-07-29T05:23:05;7.07;;;4.80;;
19940;SDS011;10132;50.864;5.176;2022-07-29T05:25:07;6.80;;;4.30;;
19940;SDS011;10132;50.864;5.176;2022-07-29T05:27:10;7.87;;;4.67;;
19940;SDS011;10132;50.864;5.176;2022-07-29T05:29:12;6.83;;;4.60;;
19940;SDS011;10132;50.864;5.176;2022-07-29T05:31:13;12.20;;;4.87;;
19940;SDS011;10132;50.864;5.176;2022-07-29T05:33:15;7.07;;;4.83;;
19940;SDS011;10132;50.864;5.176;2022-07-29T05:35:19;7.83;;;4.43;;
19940;SDS011;10132;50.864;5.176;2022-07-29T05:37:21;9.33;;;4.73;;
19940;SDS011;10132;50.864;5.176;2022-07-29T05:39:23;9.80;;;4.57;;
19940;SDS011;10132;50.864;5.176;2022-07-29T05:41:25;5.60;;;4.70;;
19940;SDS011;10132;50.864;5.176;2022-07-29T05:43:26;6.80;;;5.10;;
19940;SDS011;10132;50.864;5.176;2022-07-29T05:45:30;6.20;;;5.20;;
19940;SDS011;10132;50.864;5.176;2022-07-29T05:47:32;7.73;;;5.17;;
19940;SDS011;10132;50.864;5.176;2022-07-29T05:49:34;6.90;;;5.20;;
19940;SDS011;10132;50.864;5.176;2022-07-29T05:51:37;7.27;;;5.47;;
19940;SDS011;10132;50.864;5.176;2022-07-29T05:53:39;8.40;;;5.63;;
19940;SDS011;10132;50.864;5.176;2022-07-29T05:55:41;8.10;;;6.07;;
19940;SDS011;10132;50.864;5.176;2022-07-29T05:57:43;9.80;;;6.23;;
19940;SDS011;10132;50.864;5.176;2022-07-29T05:59:46;9.70;;;6.70;;
19940;SDS011;10132;50.864;5.176;2022-07-29T06:01:48;7.23;;;6.10;;
19940;SDS011;10132;50.864;5.176;2022-07-29T06:03:50;7.20;;;6.30;;
19940;SDS011;10132;50.864;5.176;2022-07-29T06:05:52;7.93;;;6.53;;
19940;SDS011;10132;50.864;5.176;2022-07-29T06:07:56;12.33;;;7.50;;
19940;SDS011;10132;50.864;5.176;2022-07-29T06:09:58;9.50;;;6.70;;
19940;SDS011;10132;50.864;5.176;2022-07-29T06:11:59;7.83;;;6.30;;
19940;SDS011;10132;50.864;5.176;2022-07-29T06:14:02;11.80;;;7.35;;
19940;SDS011;10132;50.864;5.176;2022-07-29T06:16:04;10.13;;;7.57;;
19940;SDS011;10132;50.864;5.176;2022-07-29T06:18:06;9.93;;;7.67;;
19940;SDS011;10132;50.864;5.176;2022-07-29T06:20:10;10.23;;;7.43;;
19940;SDS011;10132;50.864;5.176;2022-07-29T06:22:12;12.47;;;8.30;;
19940;SDS011;10132;50.864;5.176;2022-07-29T06:24:17;9.77;;;8.60;;
19940;SDS011;10132;50.864;5.176;2022-07-29T06:26:19;9.60;;;7.53;;
19940;SDS011;10132;50.864;5.176;2022-07-29T06:28:21;10.97;;;8.10;;
19940;SDS011;10132;50.864;5.176;2022-07-29T06:30:23;13.05;;;8.48;;
19940;SDS011;10132;50.864;5.176;2022-07-29T06:32:25;11.88;;;8.30;;
19940;SDS011;10132;50.864;5.176;2022-07-29T06:34:27;10.60;;;8.15;;
19940;SDS011;10132;50.864;5.176;2022-07-29T06:36:29;11.13;;;7.93;;
19940;SDS011;10132;50.864;5.176;2022-07-29T06:38:32;9.10;;;7.90;;
19940;SDS011;10132;50.864;5.176;2022-07-29T06:40:35;12.40;;;7.95;;
19940;SDS011;10132;50.864;5.176;2022-07-29T06:42:54;8.93;;;7.28;;
19940;SDS011;10132;50.864;5.176;2022-07-29T06:44:56;8.38;;;7.00;;
19940;SDS011;10132;50.864;5.176;2022-07-29T06:46:59;10.20;;;7.20;;
19940;SDS011;10132;50.864;5.176;2022-07-29T06:49:01;9.95;;;6.88;;
19940;SDS011;10132;50.864;5.176;2022-07-29T06:51:03;9.43;;;6.77;;
19940;SDS011;10132;50.864;5.176;2022-07-29T06:53:06;8.85;;;6.93;;
19940;SDS011;10132;50.864;5.176;2022-07-29T06:55:08;9.43;;;7.00;;
19940;SDS011;10132;50.864;5.176;2022-07-29T06:57:12;9.45;;;7.10;;
19940;SDS011;10132;50.864;5.176;2022-07-29T06:59:14;10.35;;;6.72;;
19940;SDS011;10132;50.864;5.176;2022-07-29T07:01:16;7.82;;;6.50;;
19940;SDS011;10132;50.864;5.176;2022-07-29T07:03:18;9.95;;;6.25;;
19940;SDS011;10132;50.864;5.176;2022-07-29T07:05:20;7.47;;;5.75;;
19940;SDS011;10132;50.864;5.176;2022-07-29T07:07:22;10.43;;;6.72;;
19940;SDS011;10132;50.864;5.176;2022-07-29T07:09:24;7.78;;;5.97;;
19940;SDS011;10132;50.864;5.176;2022-07-29T07:11:26;7.13;;;5.90;;
19940;SDS011;10132;50.864;5.176;2022-07-29T07:13:30;7.50;;;5.85;;
19940;SDS011;10132;50.864;5.176;2022-07-29T07:15:35;6.68;;;5.63;;
19940;SDS011;10132;50.864;5.176;2022-07-29T07:17:37;8.95;;;5.60;;
19940;SDS011;10132;50.864;5.176;2022-07-29T07:19:39;9.50;;;5.82;;
19940;SDS011;10132;50.864;5.176;2022-07-29T07:21:41;9.65;;;6.20;;
19940;SDS011;10132;50.864;5.176;2022-07-29T07:23:43;6.95;;;5.70;;
19940;SDS011;10132;50.864;5.176;2022-07-29T07:25:45;7.15;;;5.47;;
19940;SDS011;10132;50.864;5.176;2022-07-29T07:27:47;7.82;;;5.10;;
19940;SDS011;10132;50.864;5.176;2022-07-29T07:29:50;7.38;;;5.50;;
19940;SDS011;10132;50.864;5.176;2022-07-29T07:31:52;7.90;;;6.03;;
19940;SDS011;10132;50.864;5.176;2022-07-29T07:33:55;7.38;;;5.38;;
19940;SDS011;10132;50.864;5.176;2022-07-29T07:35:57;8.25;;;5.63;;
19940;SDS011;10132;50.864;5.176;2022-07-29T07:37:59;7.07;;;4.95;;
19940;SDS011;10132;50.864;5.176;2022-07-29T07:40:00;11.02;;;5.43;;
19940;SDS011;10132;50.864;5.176;2022-07-29T07:42:03;6.05;;;4.95;;
19940;SDS011;10132;50.864;5.176;2022-07-29T07:44:05;7.95;;;5.07;;
19940;SDS011;10132;50.864;5.176;2022-07-29T07:46:08;7.10;;;5.57;;
19940;SDS011;10132;50.864;5.176;2022-07-29T07:48:10;6.15;;;5.25;;
19940;SDS011;10132;50.864;5.176;2022-07-29T07:50:12;6.22;;;5.13;;
19940;SDS011;10132;50.864;5.176;2022-07-29T07:52:14;6.47;;;5.13;;
19940;SDS011;10132;50.864;5.176;2022-07-29T07:54:17;7.90;;;4.90;;
19940;SDS011;10132;50.864;5.176;2022-07-29T07:56:19;5.45;;;4.63;;
19940;SDS011;10132;50.864;5.176;2022-07-29T07:58:21;6.47;;;4.82;;
19940;SDS011;10132;50.864;5.176;2022-07-29T08:00:23;7.85;;;5.05;;
19940;SDS011;10132;50.864;5.176;2022-07-29T08:02:27;6.32;;;4.85;;
19940;SDS011;10132;50.864;5.176;2022-07-29T08:04:29;8.15;;;5.18;;
19940;SDS011;10132;50.864;5.176;2022-07-29T08:06:31;7.30;;;4.95;;
19940;SDS011;10132;50.864;5.176;2022-07-29T08:08:34;6.35;;;4.22;;
19940;SDS011;10132;50.864;5.176;2022-07-29T08:10:36;5.63;;;4.55;;
19940;SDS011;10132;50.864;5.176;2022-07-29T08:12:53;7.20;;;4.70;;
19940;SDS011;10132;50.864;5.176;2022-07-29T08:14:55;6.70;;;4.55;;
19940;SDS011;10132;50.864;5.176;2022-07-29T08:16:57;7.03;;;4.57;;
19940;SDS011;10132;50.864;5.176;2022-07-29T08:19:01;7.57;;;4.63;;
19940;SDS011;10132;50.864;5.176;2022-07-29T08:21:03;8.05;;;4.50;;
19940;SDS011;10132;50.864;5.176;2022-07-29T08:23:06;9.27;;;4.80;;
19940;SDS011;10132;50.864;5.176;2022-07-29T08:25:09;5.72;;;4.50;;
19940;SDS011;10132;50.864;5.176;2022-07-29T08:27:11;6.35;;;4.75;;
19940;SDS011;10132;50.864;5.176;2022-07-29T08:29:14;8.63;;;4.78;;
19940;SDS011;10132;50.864;5.176;2022-07-29T08:31:16;8.55;;;4.97;;
19940;SDS011;10132;50.864;5.176;2022-07-29T08:33:18;8.23;;;4.97;;
19940;SDS011;10132;50.864;5.176;2022-07-29T08:35:22;8.65;;;5.10;;
19940;SDS011;10132;50.864;5.176;2022-07-29T08:37:24;5.78;;;4.97;;
19940;SDS011;10132;50.864;5.176;2022-07-29T08:39:26;5.82;;;5.00;;
19940;SDS011;10132;50.864;5.176;2022-07-29T08:41:28;6.05;;;4.63;;
19940;SDS011;10132;50.864;5.176;2022-07-29T08:43:31;6.57;;;4.35;;
19940;SDS011;10132;50.864;5.176;2022-07-29T08:45:41;8.15;;;5.10;;
19940;SDS011;10132;50.864;5.176;2022-07-29T08:47:45;7.20;;;4.65;;
19940;SDS011;10132;50.864;5.176;2022-07-29T08:49:47;6.80;;;4.68;;
19940;SDS011;10132;50.864;5.176;2022-07-29T08:51:51;7.05;;;4.38;;
19940;SDS011;10132;50.864;5.176;2022-07-29T08:53:54;6.57;;;4.10;;
19940;SDS011;10132;50.864;5.176;2022-07-29T08:55:56;7.13;;;3.80;;
19940;SDS011;10132;50.864;5.176;2022-07-29T08:57:59;7.10;;;3.83;;
19940;SDS011;10132;50.864;5.176;2022-07-29T09:00:03;7.30;;;4.43;;
19940;SDS011;10132;50.864;5.176;2022-07-29T09:02:09;8.85;;;4.43;;
19940;SDS011;10132;50.864;5.176;2022-07-29T09:04:19;6.68;;;4.40;;
19940;SDS011;10132;50.864;5.176;2022-07-29T09:06:22;8.00;;;4.38;;
19940;SDS011;10132;50.864;5.176;2022-07-29T09:08:29;5.75;;;4.10;;
19940;SDS011;10132;50.864;5.176;2022-07-29T09:10:34;7.63;;;4.95;;
19940;SDS011;10132;50.864;5.176;2022-07-29T09:12:36;7.22;;;4.28;;
19940;SDS011;10132;50.864;5.176;2022-07-29T09:14:39;8.23;;;5.30;;
19940;SDS011;10132;50.864;5.176;2022-07-29T09:16:49;8.15;;;4.93;;
19940;SDS011;10132;50.864;5.176;2022-07-29T09:18:53;5.80;;;4.53;;
19940;SDS011;10132;50.864;5.176;2022-07-29T09:20:54;4.70;;;3.33;;
19940;SDS011;10132;50.864;5.176;2022-07-29T09:23:14;6.57;;;3.90;;
19940;SDS011;10132;50.864;5.176;2022-07-29T09:27:45;4.47;;;3.67;;
19940;SDS011;10132;50.864;5.176;2022-07-29T09:29:58;7.15;;;4.80;;
19940;SDS011;10132;50.864;5.176;2022-07-29T09:32:01;8.07;;;4.40;;
19940;SDS011;10132;50.864;5.176;2022-07-29T09:34:11;7.95;;;3.60;;
19940;SDS011;10132;50.864;5.176;2022-07-29T09:36:14;6.85;;;3.83;;
19940;SDS011;10132;50.864;5.176;2022-07-29T09:38:16;6.85;;;4.90;;
19940;SDS011;10132;50.864;5.176;2022-07-29T09:40:19;5.07;;;3.90;;
19940;SDS011;10132;50.864;5.176;2022-07-29T09:42:29;6.18;;;3.40;;
19940;SDS011;10132;50.864;5.176;2022-07-29T09:44:44;5.78;;;4.00;;
19940;SDS011;10132;50.864;5.176;2022-07-29T09:46:55;5.43;;;3.95;;
19940;SDS011;10132;50.864;5.176;2022-07-29T09:49:08;5.20;;;4.03;;
19940;SDS011;10132;50.864;5.176;2022-07-29T09:51:16;6.03;;;3.80;;
19940;SDS011;10132;50.864;5.176;2022-07-29T09:53:31;6.97;;;4.63;;
19940;SDS011;10132;50.864;5.176;2022-07-29T09:55:41;6.38;;;4.43;;
19940;SDS011;10132;50.864;5.176;2022-07-29T09:57:48;5.55;;;3.28;;
19940;SDS011;10132;50.864;5.176;2022-07-29T09:59:56;4.93;;;3.58;;
19940;SDS011;10132;50.864;5.176;2022-07-29T10:01:59;4.20;;;3.80;;
19940;SDS011;10132;50.864;5.176;2022-07-29T10:04:02;5.80;;;4.40;;
19940;SDS011;10132;50.864;5.176;2022-07-29T10:06:07;6.15;;;3.92;;
19940;SDS011;10132;50.864;5.176;2022-07-29T10:08:10;4.28;;;3.28;;
19940;SDS011;10132;50.864;5.176;2022-07-29T10:10:18;5.63;;;4.10;;
19940;SDS011;10132;50.864;5.176;2022-07-29T10:12:21;5.20;;;3.22;;
19940;SDS011;10132;50.864;5.176;2022-07-29T10:14:23;4.18;;;3.65;;
19940;SDS011;10132;50.864;5.176;2022-07-29T10:16:27;7.10;;;3.85;;
19940;SDS011;10132;50.864;5.176;2022-07-29T10:18:32;4.55;;;3.88;;
19940;SDS011;10132;50.864;5.176;2022-07-29T10:20:35;4.55;;;3.75;;
19940;SDS011;10132;50.864;5.176;2022-07-29T10:22:37;5.85;;;4.10;;
19940;SDS011;10132;50.864;5.176;2022-07-29T10:24:40;8.68;;;3.55;;
19940;SDS011;10132;50.864;5.176;2022-07-29T10:26:42;6.38;;;3.63;;
19940;SDS011;10132;50.864;5.176;2022-07-29T10:28:46;5.22;;;3.80;;
19940;SDS011;10132;50.864;5.176;2022-07-29T10:30:48;8.60;;;4.20;;
19940;SDS011;10132;50.864;5.176;2022-07-29T10:32:58;5.03;;;4.50;;
19940;SDS011;10132;50.864;5.176;2022-07-29T10:35:21;4.55;;;4.05;;
19940;SDS011;10132;50.864;5.176;2022-07-29T10:37:33;6.85;;;4.22;;
19940;SDS011;10132;50.864;5.176;2022-07-29T10:39:48;5.80;;;4.57;;
19940;SDS011;10132;50.864;5.176;2022-07-29T10:41:59;5.47;;;3.75;;
19940;SDS011;10132;50.864;5.176;2022-07-29T10:44:09;7.30;;;4.00;;
19940;SDS011;10132;50.864;5.176;2022-07-29T10:46:15;5.90;;;4.40;;
19940;SDS011;10132;50.864;5.176;2022-07-29T10:48:19;4.75;;;4.10;;
19940;SDS011;10132;50.864;5.176;2022-07-29T10:50:22;5.53;;;3.88;;
19940;SDS011;10132;50.864;5.176;2022-07-29T10:52:24;4.70;;;4.18;;
19940;SDS011;10132;50.864;5.176;2022-07-29T10:54:47;4.90;;;4.40;;
19940;SDS011;10132;50.864;5.176;2022-07-29T10:56:51;6.80;;;4.63;;
19940;SDS011;10132;50.864;5.176;2022-07-29T11:01:29;5.30;;;3.70;;
19940;SDS011;10132;50.864;5.176;2022-07-29T11:03:46;5.75;;;4.43;;
19940;SDS011;10132;50.864;5.176;2022-07-29T11:05:55;6.03;;;4.60;;
19940;SDS011;10132;50.864;5.176;2022-07-29T11:08:16;6.10;;;4.32;;
19940;SDS011;10132;50.864;5.176;2022-07-29T11:10:30;5.28;;;4.65;;
19940;SDS011;10132;50.864;5.176;2022-07-29T11:14:56;7.15;;;4.53;;
19940;SDS011;10132;50.864;5.176;2022-07-29T11:17:00;6.93;;;4.38;;
19940;SDS011;10132;50.864;5.176;2022-07-29T11:19:20;5.90;;;4.18;;
19940;SDS011;10132;50.864;5.176;2022-07-29T11:21:34;6.47;;;4.20;;
19940;SDS011;10132;50.864;5.176;2022-07-29T11:23:37;8.90;;;3.80;;
19940;SDS011;10132;50.864;5.176;2022-07-29T11:25:42;7.40;;;3.70;;
19940;SDS011;10132;50.864;5.176;2022-07-29T11:27:44;5.80;;;3.45;;
19940;SDS011;10132;50.864;5.176;2022-07-29T11:29:50;3.90;;;3.33;;
19940;SDS011;10132;50.864;5.176;2022-07-29T11:31:54;4.43;;;3.38;;
19940;SDS011;10132;50.864;5.176;2022-07-29T11:34:17;6.88;;;3.72;;
19940;SDS011;10132;50.864;5.176;2022-07-29T11:36:21;5.80;;;3.60;;
19940;SDS011;10132;50.864;5.176;2022-07-29T11:38:24;5.93;;;3.40;;
19940;SDS011;10132;50.864;5.176;2022-07-29T11:40:27;8.77;;;4.07;;
19940;SDS011;10132;50.864;5.176;2022-07-29T11:42:39;6.43;;;3.45;;
19940;SDS011;10132;50.864;5.176;2022-07-29T11:44:55;6.95;;;3.30;;
19940;SDS011;10132;50.864;5.176;2022-07-29T11:46:59;8.40;;;3.15;;
19940;SDS011;10132;50.864;5.176;2022-07-29T11:49:01;6.25;;;3.17;;
19940;SDS011;10132;50.864;5.176;2022-07-29T11:51:08;4.10;;;2.88;;
19940;SDS011;10132;50.864;5.176;2022-07-29T11:53:12;5.07;;;3.15;;
19940;SDS011;10132;50.864;5.176;2022-07-29T11:55:15;5.32;;;3.30;;
19940;SDS011;10132;50.864;5.176;2022-07-29T11:57:19;5.93;;;3.20;;
19940;SDS011;10132;50.864;5.176;2022-07-29T11:59:21;6.18;;;3.03;;
19940;SDS011;10132;50.864;5.176;2022-07-29T12:01:23;4.82;;;3.28;;
19940;SDS011;10132;50.864;5.176;2022-07-29T12:03:27;5.65;;;2.60;;
19940;SDS011;10132;50.864;5.176;2022-07-29T12:05:37;4.20;;;2.83;;
19940;SDS011;10132;50.864;5.176;2022-07-29T12:07:42;7.28;;;2.72;;
19940;SDS011;10132;50.864;5.176;2022-07-29T12:09:49;4.40;;;2.60;;
19940;SDS011;10132;50.864;5.176;2022-07-29T12:11:55;3.50;;;2.60;;
19940;SDS011;10132;50.864;5.176;2022-07-29T12:13:58;4.03;;;2.35;;
19940;SDS011;10132;50.864;5.176;2022-07-29T12:16:00;5.00;;;2.83;;
19940;SDS011;10132;50.864;5.176;2022-07-29T12:18:09;3.63;;;2.88;;
19940;SDS011;10132;50.864;5.176;2022-07-29T12:20:22;4.75;;;2.00;;
19940;SDS011;10132;50.864;5.176;2022-07-29T12:22:25;4.53;;;2.00;;
19940;SDS011;10132;50.864;5.176;2022-07-29T12:24:29;3.90;;;2.25;;
19940;SDS011;10132;50.864;5.176;2022-07-29T12:26:50;5.10;;;2.08;;
19940;SDS011;10132;50.864;5.176;2022-07-29T12:28:52;4.57;;;2.50;;
19940;SDS011;10132;50.864;5.176;2022-07-29T12:30:54;2.80;;;1.80;;
19940;SDS011;10132;50.864;5.176;2022-07-29T12:32:56;4.93;;;2.40;;
19940;SDS011;10132;50.864;5.176;2022-07-29T12:34:59;3.63;;;2.38;;
19940;SDS011;10132;50.864;5.176;2022-07-29T12:37:04;4.53;;;2.10;;
19940;SDS011;10132;50.864;5.176;2022-07-29T12:39:09;4.35;;;2.28;;